Time;durP1;ratioP1;P1;durP2;ratioP2;P2;SDS_P1;SDS_P2;PMS_P1;PMS_P2;Temp;Humidity;BMP_temperature;BMP_pressure;BME280_temperature;BME280_humidity;BME280_pressure;Samples;Min_cycle;Max_cycle;Signal;HPM_P1;HPM_P2
2023/05/05 00:00:20;;;;;;;0.10;0.10;;;;;;;19.81;50.70;101564.31;5074450;28;20020;-82
2023/05/05 00:02:46;;;;;;;0.10;0.10;;;;;;;19.73;51.39;101560.16;5068957;28;20032;-83
2023/05/05 00:05:13;;;;;;;0.30;0.30;;;;;;;19.77;51.50;101560.03;5075725;28;20028;-83
2023/05/05 00:07:39;;;;;;;0.00;0.00;;;;;;;19.64;51.71;101551.66;5061138;28;20020;-83
2023/05/05 00:10:06;;;;;;;0.85;0.85;;;;;;;19.61;51.86;101551.81;5063574;28;20025;-83
2023/05/05 00:12:32;;;;;;;1.98;0.45;;;;;;;19.53;52.17;101547.66;5064405;28;20063;-83
2023/05/05 00:14:58;;;;;;;0.10;0.10;;;;;;;19.50;51.99;101544.25;5067697;28;20049;-84
2023/05/05 00:17:24;;;;;;;0.10;0.10;;;;;;;19.44;52.17;101536.47;5066873;28;20522;-82
2023/05/05 00:19:50;;;;;;;0.20;0.20;;;;;;;19.36;52.39;101531.44;5067668;28;20021;-83
2023/05/05 00:22:16;;;;;;;0.15;0.15;;;;;;;19.37;52.19;101509.00;5060766;28;20033;-84
2023/05/05 00:24:42;;;;;;;0.60;0.60;;;;;;;19.27;52.70;101502.34;5063927;28;20033;-82
2023/05/05 00:27:09;;;;;;;0.20;0.10;;;;;;;19.25;52.39;101491.63;5066596;28;20035;-82
2023/05/05 00:29:35;;;;;;;0.10;0.10;;;;;;;19.21;52.57;101498.09;5065193;28;20021;-81
2023/05/05 00:32:01;;;;;;;0.10;0.10;;;;;;;19.24;52.40;101488.09;5063400;28;20028;-83
2023/05/05 00:34:27;;;;;;;3.60;0.75;;;;;;;19.26;52.23;101496.06;5067484;28;20035;-82
2023/05/05 00:36:53;;;;;;;0.00;0.00;;;;;;;19.25;52.26;101483.56;5069430;28;20048;-83
2023/05/05 00:39:19;;;;;;;0.30;0.20;;;;;;;19.24;52.14;101488.09;5076390;28;20047;-81
2023/05/05 00:41:45;;;;;;;0.03;0.03;;;;;;;19.24;51.94;101485.41;5074339;28;20623;-84
2023/05/05 00:44:11;;;;;;;0.20;0.20;;;;;;;19.23;51.72;101472.91;5076269;28;20365;-83
2023/05/05 00:46:39;;;;;;;0.00;0.00;;;;;;;19.26;51.75;101477.25;5087255;28;20299;-83
2023/05/05 00:49:05;;;;;;;0.00;0.00;;;;;;;19.24;51.49;101482.72;5072905;28;20116;-85
2023/05/05 00:51:32;;;;;;;0.10;0.10;;;;;;;19.20;51.57;101491.88;5078166;28;20025;-83
2023/05/05 00:53:58;;;;;;;0.00;0.00;;;;;;;19.17;51.46;101497.38;5085350;28;20039;-84
2023/05/05 00:56:26;;;;;;;0.00;0.00;;;;;;;19.13;51.30;101495.78;5074013;28;20039;-83
2023/05/05 00:58:52;;;;;;;0.10;0.10;;;;;;;19.13;51.39;101494.88;5076700;28;20033;-84
2023/05/05 01:01:19;;;;;;;0.00;0.00;;;;;;;19.11;51.32;101483.34;5066722;28;20029;-83
2023/05/05 01:03:45;;;;;;;0.00;0.00;;;;;;;19.11;51.19;101494.09;5066097;28;20524;-82
2023/05/05 01:06:27;;;;;;;0.08;0.08;;;;;;;19.15;51.08;101499.28;5067764;28;20108;-81
2023/05/05 01:09:20;;;;;;;0.10;0.10;;;;;;;19.13;50.97;101498.47;5076987;28;20029;-82
2023/05/05 01:11:57;;;;;;;0.03;0.03;;;;;;;19.12;50.90;101498.53;5070337;28;20793;-81
2023/05/05 01:14:35;;;;;;;0.00;0.00;;;;;;;19.14;51.01;101504.69;5077474;28;20029;-83
2023/05/05 01:17:13;;;;;;;0.00;0.00;;;;;;;19.16;50.89;101522.47;5066201;28;20093;-83
2023/05/05 01:22:38;;;;;;;0.00;0.00;;;;;;;19.20;50.81;101533.97;5095810;27;20411;-83
2023/05/05 01:25:20;;;;;;;0.03;0.03;;;;;;;19.21;50.79;101530.34;5095807;28;20024;-84
2023/05/05 01:31:09;;;;;;;0.52;0.52;;;;;;;19.14;50.83;101526.19;5061352;28;20430;-83
2023/05/05 01:33:44;;;;;;;0.10;0.10;;;;;;;19.04;51.47;101531.97;5049113;28;20096;-82
2023/05/05 01:36:21;;;;;;;0.10;0.10;;;;;;;18.96;51.19;101526.06;5052176;28;20025;-82
2023/05/05 01:38:52;;;;;;;0.10;0.10;;;;;;;18.89;51.56;101527.22;5044003;28;20022;-81
2023/05/05 01:41:25;;;;;;;0.10;0.10;;;;;;;18.82;51.40;101517.72;5055206;28;20036;-81
2023/05/05 01:43:55;;;;;;;0.10;0.10;;;;;;;18.73;51.71;101525.22;5047656;28;20025;-82
2023/05/05 01:46:23;;;;;;;0.00;0.00;;;;;;;18.65;51.89;101530.06;5054209;28;20037;-79
2023/05/05 01:48:52;;;;;;;0.03;0.03;;;;;;;18.57;52.38;101529.53;5053498;28;20028;-82
2023/05/05 01:51:21;;;;;;;0.00;0.00;;;;;;;18.50;52.54;101530.72;5057702;28;20033;-84
2023/05/05 01:53:51;;;;;;;0.00;0.00;;;;;;;18.42;52.52;101531.91;5052695;28;20445;-83
2023/05/05 01:56:19;;;;;;;0.10;0.10;;;;;;;18.36;52.80;101532.16;5074463;28;20024;-83
2023/05/05 01:58:47;;;;;;;0.17;0.17;;;;;;;18.30;52.68;101537.78;5060035;28;20051;-81
2023/05/05 02:01:14;;;;;;;0.10;0.10;;;;;;;18.25;52.77;101539.78;5057044;28;20025;-82
2023/05/05 02:03:42;;;;;;;0.00;0.00;;;;;;;18.21;53.07;101541.72;5055268;28;20033;-83
2023/05/05 02:06:11;;;;;;;0.10;0.10;;;;;;;18.17;53.36;101548.16;5059702;28;20037;-83
2023/05/05 02:08:38;;;;;;;0.10;0.10;;;;;;;18.13;53.07;101556.38;5060207;28;20075;-83
2023/05/05 02:11:05;;;;;;;0.10;0.10;;;;;;;18.07;52.67;101553.00;5059187;28;20052;-82
2023/05/05 02:13:32;;;;;;;0.00;0.00;;;;;;;18.02;52.91;101551.44;5056841;28;20025;-82
2023/05/05 02:15:59;;;;;;;0.10;0.10;;;;;;;17.96;53.34;101555.25;5055459;28;20056;-83
2023/05/05 02:18:27;;;;;;;0.10;0.10;;;;;;;17.92;53.78;101558.97;5050463;28;20123;-83
2023/05/05 02:20:53;;;;;;;0.00;0.00;;;;;;;17.88;53.18;101549.28;5060912;28;20058;-83
2023/05/05 02:23:20;;;;;;;0.08;0.08;;;;;;;17.84;53.16;101540.47;5053708;28;20647;-83
2023/05/05 02:25:54;;;;;;;0.10;0.10;;;;;;;17.84;53.54;101547.66;5048605;28;20036;-83
2023/05/05 02:28:32;;;;;;;0.00;0.00;;;;;;;17.76;53.51;101546.16;5057161;28;20040;-83
2023/05/05 02:31:01;;;;;;;0.00;0.00;;;;;;;17.70;53.26;101559.78;5047419;28;20033;-81
2023/05/05 02:33:32;;;;;;;0.10;0.10;;;;;;;17.63;53.46;101559.16;5049146;28;20379;-84
2023/05/05 02:36:05;;;;;;;0.10;0.10;;;;;;;17.59;53.70;101556.66;5052890;28;20097;-83
2023/05/05 02:38:33;;;;;;;0.00;0.00;;;;;;;17.52;53.47;101563.16;5048513;28;20052;-83
2023/05/05 02:41:01;;;;;;;0.00;0.00;;;;;;;17.44;54.10;101556.28;5040349;28;20052;-84
2023/05/05 02:43:30;;;;;;;0.10;0.10;;;;;;;17.38;53.79;101551.16;5040127;28;20025;-82
2023/05/05 02:45:56;;;;;;;0.10;0.10;;;;;;;17.31;54.33;101557.69;5039840;28;20033;-83
2023/05/05 02:48:22;;;;;;;0.05;0.05;;;;;;;17.22;54.21;101558.91;5039952;28;20040;-81
2023/05/05 02:50:48;;;;;;;0.00;0.00;;;;;;;17.16;54.38;101558.22;5037221;28;20041;-82
2023/05/05 02:53:15;;;;;;;0.10;0.10;;;;;;;17.10;54.99;101560.22;5042089;28;20051;-83
2023/05/05 02:55:50;;;;;;;0.05;0.05;;;;;;;17.08;55.21;101564.72;5033219;28;20502;-82
2023/05/05 03:03:48;;;;;;;0.03;0.03;;;;;;;16.94;55.23;101572.41;5109381;27;20439;-83
2023/05/05 03:06:19;;;;;;;0.10;0.10;;;;;;;16.88;55.15;101575.25;5079482;28;20084;-82
2023/05/05 03:09:02;;;;;;;0.10;0.10;;;;;;;16.82;56.50;101576.31;5091704;28;20036;-82
2023/05/05 03:14:17;;;;;;;0.03;0.03;;;;;;;16.70;55.94;101572.28;5100955;27;20401;-82
2023/05/05 03:16:45;;;;;;;0.10;0.10;;;;;;;16.67;55.63;101569.69;5100424;28;20032;-81
2023/05/05 03:19:13;;;;;;;0.10;0.10;;;;;;;16.64;56.35;101543.06;5097824;28;20025;-81
2023/05/05 03:21:39;;;;;;;0.10;0.10;;;;;;;16.61;56.34;101541.38;5103107;28;20036;-81
2023/05/05 03:24:21;;;;;;;0.10;0.10;;;;;;;16.67;56.08;101545.63;5106342;28;20464;-83
2023/05/05 03:26:48;;;;;;;0.03;0.03;;;;;;;16.57;56.72;101552.22;5096425;27;20370;-82
2023/05/05 03:29:15;;;;;;;0.10;0.10;;;;;;;16.56;56.33;101558.50;5098394;28;20046;-79
2023/05/05 03:31:41;;;;;;;0.10;0.10;;;;;;;16.54;56.75;101552.34;5098103;28;20051;-80
2023/05/05 03:34:08;;;;;;;0.10;0.10;;;;;;;16.50;56.71;101549.75;5096528;28;20405;-83
2023/05/05 03:36:34;;;;;;;0.00;0.00;;;;;;;16.49;56.54;101552.47;5109024;28;20377;-83
2023/05/05 03:39:01;;;;;;;0.10;0.10;;;;;;;16.47;56.95;101552.53;5098275;28;20039;-80
2023/05/05 03:41:27;;;;;;;0.00;0.00;;;;;;;16.43;56.96;101553.56;5094677;28;20030;-81
2023/05/05 03:43:53;;;;;;;0.10;0.10;;;;;;;16.40;57.01;101558.13;5104279;28;20078;-81
2023/05/05 03:46:20;;;;;;;0.05;0.05;;;;;;;16.36;56.98;101562.69;5098575;28;20084;-81
2023/05/05 03:48:47;;;;;;;0.10;0.10;;;;;;;16.37;57.60;101568.94;5094083;28;20039;-81
2023/05/05 03:51:13;;;;;;;0.10;0.10;;;;;;;16.33;57.37;101568.16;5102430;28;20388;-81
2023/05/05 03:53:39;;;;;;;0.10;0.10;;;;;;;16.30;56.89;101568.28;5099061;28;20443;-81
2023/05/05 03:56:06;;;;;;;0.00;0.00;;;;;;;16.23;57.47;101577.41;5104832;28;20040;-81
2023/05/05 03:58:32;;;;;;;0.10;0.10;;;;;;;16.17;57.74;101584.72;5108244;28;20027;-82
2023/05/05 04:00:58;;;;;;;0.10;0.10;;;;;;;16.13;57.78;101596.41;5107568;28;20035;-80
2023/05/05 04:03:24;;;;;;;0.00;0.00;;;;;;;16.09;57.76;101596.56;5108836;28;20499;-78
2023/05/05 04:05:50;;;;;;;0.47;0.47;;;;;;;16.04;58.11;101602.03;5105344;28;20042;-81
2023/05/05 04:08:16;;;;;;;0.03;0.03;;;;;;;16.04;57.92;101610.06;5104983;28;20028;-81
2023/05/05 04:10:42;;;;;;;0.00;0.00;;;;;;;15.99;57.50;101604.84;5102739;28;20037;-82
2023/05/05 04:13:08;;;;;;;0.10;0.10;;;;;;;15.98;57.66;101610.25;5116248;28;20047;-78
2023/05/05 04:15:34;;;;;;;0.10;0.10;;;;;;;15.97;58.05;101604.00;5122527;28;20067;-82
2023/05/05 04:18:00;;;;;;;0.10;0.10;;;;;;;15.93;58.09;101612.19;5113556;28;20036;-80
2023/05/05 04:20:26;;;;;;;0.28;0.25;;;;;;;15.89;58.01;101616.75;5101951;28;20100;-82
2023/05/05 04:22:53;;;;;;;0.10;0.10;;;;;;;15.87;58.52;101618.59;5108527;28;20024;-80
2023/05/05 04:25:19;;;;;;;0.10;0.10;;;;;;;15.85;58.62;101623.13;5094804;28;20040;-81
2023/05/05 04:27:45;;;;;;;0.10;0.10;;;;;;;15.83;58.47;101609.78;5088822;28;20044;-82
2023/05/05 04:30:12;;;;;;;1.25;1.17;;;;;;;15.83;58.18;101617.78;5101914;28;20028;-81
2023/05/05 04:32:38;;;;;;;0.08;0.08;;;;;;;15.83;58.59;101617.78;5079930;27;20477;-81
2023/05/05 04:35:04;;;;;;;0.10;0.10;;;;;;;15.82;58.80;101615.19;5085366;28;20106;-82
2023/05/05 04:37:31;;;;;;;0.10;0.10;;;;;;;15.82;58.95;101629.41;5082991;28;20017;-82
2023/05/05 04:39:57;;;;;;;0.00;0.00;;;;;;;15.81;58.77;101627.63;5089073;28;20073;-81
2023/05/05 04:42:23;;;;;;;0.00;0.00;;;;;;;15.79;58.86;101634.81;5089297;28;20076;-80
2023/05/05 04:44:49;;;;;;;0.00;0.00;;;;;;;15.80;58.53;101628.56;5083861;28;20016;-82
2023/05/05 04:47:15;;;;;;;0.00;0.00;;;;;;;15.80;58.75;101623.22;5095869;28;20020;-82
2023/05/05 04:49:41;;;;;;;0.05;0.05;;;;;;;15.79;58.17;101616.09;5082602;28;20028;-82
2023/05/05 04:52:07;;;;;;;0.10;0.10;;;;;;;15.78;59.12;101625.03;5093486;28;20496;-82
2023/05/05 04:54:35;;;;;;;0.10;0.10;;;;;;;15.80;58.78;101622.31;5093750;28;20062;-81
2023/05/05 04:57:02;;;;;;;0.13;0.13;;;;;;;15.80;58.85;101622.31;5081877;28;20096;-80
2023/05/05 04:59:29;;;;;;;0.03;0.03;;;;;;;15.81;58.80;101624.97;5089972;28;20039;-81
2023/05/05 05:01:55;;;;;;;0.10;0.10;;;;;;;15.83;59.03;101624.94;5078060;28;20035;-81
2023/05/05 05:04:21;;;;;;;0.20;0.20;;;;;;;15.83;59.30;101628.47;5082348;28;20085;-81
2023/05/05 05:06:47;;;;;;;0.10;0.10;;;;;;;15.84;59.20;101626.69;5077547;28;20020;-80
2023/05/05 05:09:13;;;;;;;0.10;0.10;;;;;;;15.87;59.19;101631.09;5081217;28;22147;-81
2023/05/05 05:11:39;;;;;;;0.20;0.20;;;;;;;15.90;59.56;101644.34;5083427;28;20520;-82
2023/05/05 05:14:06;;;;;;;0.22;0.22;;;;;;;15.92;59.14;101642.50;5082137;28;20028;-81
2023/05/05 05:16:32;;;;;;;0.10;0.10;;;;;;;15.94;59.02;101638.00;5072152;28;20034;-82
2023/05/05 05:18:58;;;;;;;0.10;0.10;;;;;;;15.98;58.94;101635.16;5073947;28;20036;-79
2023/05/05 05:21:24;;;;;;;0.22;0.22;;;;;;;16.01;59.15;101639.53;5082306;28;20112;-80
2023/05/05 05:23:51;;;;;;;0.20;0.20;;;;;;;16.04;59.08;101647.50;5073330;28;20375;-82
2023/05/05 05:26:17;;;;;;;0.10;0.10;;;;;;;16.07;59.18;101658.06;5083951;28;20435;-81
2023/05/05 05:28:43;;;;;;;0.10;0.10;;;;;;;16.09;59.77;101650.91;5078845;28;20115;-82
2023/05/05 05:31:09;;;;;;;0.10;0.10;;;;;;;16.13;59.16;101660.56;5074376;28;20036;-81
2023/05/05 05:33:35;;;;;;;0.08;0.08;;;;;;;16.16;59.37;101662.25;5080637;28;20097;-81
2023/05/05 05:36:01;;;;;;;0.10;0.10;;;;;;;16.20;59.43;101663.03;5077169;28;20040;-81
2023/05/05 05:38:27;;;;;;;0.10;0.10;;;;;;;16.20;59.97;101657.69;5079724;28;20039;-81
2023/05/05 05:40:53;;;;;;;0.10;0.08;;;;;;;16.23;59.73;101653.13;5080955;28;20024;-84
2023/05/05 05:43:20;;;;;;;0.10;0.10;;;;;;;16.26;59.88;101654.84;5087675;28;20044;-82
2023/05/05 05:45:46;;;;;;;0.10;0.10;;;;;;;16.29;59.77;101657.44;5083089;28;20038;-81
2023/05/05 05:48:12;;;;;;;0.00;0.00;;;;;;;16.32;59.94;101660.00;5083075;28;20036;-80
2023/05/05 05:50:38;;;;;;;0.10;0.10;;;;;;;16.37;60.25;101658.06;5083990;28;20028;-79
2023/05/05 05:53:04;;;;;;;0.40;0.30;;;;;;;16.42;59.75;101666.81;5074658;28;20034;-80
2023/05/05 05:55:31;;;;;;;4.80;0.68;;;;;;;16.48;60.01;101669.28;5079604;28;20029;-80
2023/05/05 05:57:57;;;;;;;0.20;0.20;;;;;;;16.55;59.23;101670.00;5078470;28;20127;-80
2023/05/05 06:00:23;;;;;;;0.73;0.73;;;;;;;16.63;59.31;101673.28;5077813;28;20560;-80
2023/05/05 06:02:50;;;;;;;0.05;0.05;;;;;;;16.72;59.34;101681.94;5079673;28;20031;-81
2023/05/05 06:05:16;;;;;;;0.22;0.22;;;;;;;16.82;59.11;101680.69;5078754;28;20032;-83
2023/05/05 06:07:42;;;;;;;0.10;0.10;;;;;;;16.95;58.97;101678.56;5081612;28;20028;-83
2023/05/05 06:10:08;;;;;;;0.38;0.38;;;;;;;17.08;59.37;101682.53;5087683;28;20065;-81
2023/05/05 06:12:34;;;;;;;0.50;0.50;;;;;;;17.23;59.55;101681.13;5094324;28;20032;-83
2023/05/05 06:15:01;;;;;;;0.05;0.05;;;;;;;17.39;59.18;101684.16;5084791;28;20828;-83
2023/05/05 06:17:27;;;;;;;0.50;0.50;;;;;;;17.55;59.18;101683.63;5081070;28;20029;-83
2023/05/05 06:19:53;;;;;;;0.10;0.10;;;;;;;17.68;59.06;101679.56;5079779;28;20043;-84
2023/05/05 06:22:19;;;;;;;0.10;0.10;;;;;;;17.80;59.05;101688.97;5081562;28;20054;-85
2023/05/05 06:24:45;;;;;;;0.00;0.00;;;;;;;17.91;59.06;101680.53;5084107;28;20074;-83
2023/05/05 06:27:11;;;;;;;0.10;0.10;;;;;;;17.98;58.92;101691.94;5089795;28;20071;-81
2023/05/05 06:29:37;;;;;;;0.10;0.10;;;;;;;18.01;58.88;101687.31;5091350;28;20037;-83
2023/05/05 06:32:06;;;;;;;0.10;0.10;;;;;;;18.04;58.83;101687.19;5093689;28;20047;-81
2023/05/05 06:34:32;;;;;;;0.10;0.10;;;;;;;18.13;58.95;101687.78;5091429;28;20028;-82
2023/05/05 06:36:58;;;;;;;0.20;0.20;;;;;;;18.22;58.68;101680.25;5080969;28;20032;-81
2023/05/05 06:39:24;;;;;;;0.10;0.10;;;;;;;18.34;59.06;101683.41;5080755;28;20061;-80
2023/05/05 06:41:50;;;;;;;0.03;0.03;;;;;;;18.42;58.84;101687.53;5077567;28;20508;-81
2023/05/05 06:44:16;;;;;;;0.55;0.55;;;;;;;18.61;58.25;101689.47;5074405;28;20128;-81
2023/05/05 06:46:42;;;;;;;0.00;0.00;;;;;;;18.72;58.26;101684.53;5082077;28;20035;-82
2023/05/05 06:49:09;;;;;;;0.10;0.10;;;;;;;18.82;58.14;101684.19;5077236;28;20067;-83
2023/05/05 06:51:35;;;;;;;1.17;0.77;;;;;;;18.89;58.17;101691.91;5073745;28;20448;-82
2023/05/05 06:54:01;;;;;;;0.10;0.10;;;;;;;18.92;57.73;101696.31;5073312;28;20032;-83
2023/05/05 06:56:29;;;;;;;1.73;1.00;;;;;;;18.94;57.93;101704.31;5077032;28;20024;-83
2023/05/05 06:58:55;;;;;;;0.88;0.85;;;;;;;18.96;57.63;101697.06;5081615;28;20024;-85
2023/05/05 07:01:21;;;;;;;0.10;0.10;;;;;;;18.98;57.98;101693.38;5077348;28;20059;-82
2023/05/05 07:03:51;;;;;;;0.40;0.40;;;;;;;19.02;57.69;101694.97;5073117;28;20021;-85
2023/05/05 07:06:17;;;;;;;0.30;0.30;;;;;;;19.02;57.66;101703.03;5078407;28;20388;-84
2023/05/05 07:08:43;;;;;;;0.10;0.10;;;;;;;19.08;57.48;101700.09;5073627;28;20398;-85
2023/05/05 07:11:09;;;;;;;0.10;0.10;;;;;;;19.14;57.52;101695.41;5077928;28;20124;-86
2023/05/05 07:13:35;;;;;;;0.93;0.63;;;;;;;19.17;57.34;101697.97;5079127;28;20025;-85
2023/05/05 07:16:01;;;;;;;0.20;0.20;;;;;;;19.26;57.33;101702.94;5076069;28;20037;-85
2023/05/05 07:18:27;;;;;;;0.10;0.10;;;;;;;19.31;57.25;101703.59;5088504;28;20030;-83
2023/05/05 07:20:53;;;;;;;0.10;0.10;;;;;;;19.40;57.18;101691.59;5083049;28;20037;-83
2023/05/05 07:23:19;;;;;;;0.75;0.75;;;;;;;19.51;57.19;101691.13;5074798;28;20136;-83
2023/05/05 07:25:46;;;;;;;0.10;0.10;;;;;;;19.66;56.98;101697.63;5075365;28;20036;-85
2023/05/05 07:28:12;;;;;;;0.05;0.05;;;;;;;19.81;56.68;101694.28;5086273;28;20032;-84
2023/05/05 07:30:41;;;;;;;0.20;0.20;;;;;;;19.95;56.26;101698.16;5075574;28;20060;-84
2023/05/05 07:33:10;;;;;;;0.20;0.20;;;;;;;20.10;56.17;101707.34;5079168;28;20055;-84
2023/05/05 07:35:38;;;;;;;0.00;0.00;;;;;;;20.13;55.55;101699.13;5075648;28;20115;-85
2023/05/05 07:38:04;;;;;;;0.30;0.30;;;;;;;20.22;54.95;101706.75;5075768;28;20047;-84
2023/05/05 07:40:32;;;;;;;0.10;0.10;;;;;;;20.34;55.01;101698.13;5074398;28;20070;-84
2023/05/05 07:43:03;;;;;;;0.10;0.10;;;;;;;20.51;55.15;101702.69;5080253;28;20024;-85
2023/05/05 07:45:30;;;;;;;0.10;0.10;;;;;;;20.68;54.66;101696.47;5076793;28;20032;-83
2023/05/05 07:48:02;;;;;;;0.10;0.10;;;;;;;20.84;54.55;101698.47;5071917;28;20062;-86
2023/05/05 07:50:28;;;;;;;0.25;0.25;;;;;;;20.99;54.32;101700.38;5073555;28;20028;-82
2023/05/05 07:52:57;;;;;;;0.22;0.22;;;;;;;21.12;53.54;101708.72;5075558;28;20078;-83
2023/05/05 07:55:29;;;;;;;0.75;0.75;;;;;;;21.21;53.12;101707.38;5078443;28;20024;-83
2023/05/05 07:57:55;;;;;;;0.30;0.25;;;;;;;21.34;53.12;101704.91;5078150;28;20160;-84
2023/05/05 08:00:22;;;;;;;0.32;0.32;;;;;;;21.38;52.15;101708.31;5082457;28;20032;-85
2023/05/05 08:02:48;;;;;;;0.10;0.10;;;;;;;21.42;51.95;101708.09;5077946;28;20032;-82
2023/05/05 08:08:32;;;;;;;0.28;0.28;;;;;;;21.48;51.93;101704.19;5059281;28;20601;-84
2023/05/05 08:11:32;;;;;;;;;;;;;;;;;;;;;
2023/05/05 08:14:07;;;;;;;1.60;0.43;;;;;;;21.59;51.53;101706.38;5061533;28;20053;-84
2023/05/05 08:16:33;;;;;;;0.10;0.10;;;;;;;21.59;50.96;101707.22;5072990;28;20034;-83
2023/05/05 08:19:02;;;;;;;0.65;0.65;;;;;;;21.56;51.02;101707.41;5083961;28;20028;-82
2023/05/05 08:21:28;;;;;;;0.17;0.17;;;;;;;21.45;50.75;101717.84;5079948;28;20028;-83
2023/05/05 08:23:57;;;;;;;0.10;0.10;;;;;;;21.42;50.78;101718.00;5078072;28;20054;-82
2023/05/05 08:26:24;;;;;;;0.10;0.10;;;;;;;21.31;50.74;101730.22;5081848;28;20064;-81
2023/05/05 08:28:53;;;;;;;0.10;0.10;;;;;;;21.16;51.23;101725.63;5076463;28;20090;-80
2023/05/05 08:31:20;;;;;;;0.45;0.45;;;;;;;20.83;51.83;101734.41;5087881;28;20473;-81
2023/05/05 08:33:46;;;;;;;0.10;0.10;;;;;;;20.56;52.56;101737.47;5080416;28;20036;-81
2023/05/05 08:36:12;;;;;;;1.35;0.50;;;;;;;20.33;52.87;101733.19;5077548;28;20036;-82
2023/05/05 08:38:39;;;;;;;0.10;0.10;;;;;;;20.15;52.77;101733.09;5078136;28;20065;-82
2023/05/05 08:41:08;;;;;;;0.03;0.03;;;;;;;20.04;52.97;101730.88;5075739;28;20032;-81
2023/05/05 08:43:35;;;;;;;0.20;0.20;;;;;;;19.97;53.27;101734.78;5083189;28;20420;-82
2023/05/05 08:46:01;;;;;;;0.10;0.10;;;;;;;19.96;53.09;101732.19;5076246;28;20066;-83
2023/05/05 08:48:30;;;;;;;0.10;0.10;;;;;;;19.93;53.28;101733.19;5075727;28;20025;-80
2023/05/05 08:50:58;;;;;;;0.20;0.20;;;;;;;19.94;52.94;101736.75;5085350;28;20087;-81
2023/05/05 08:53:50;;;;;;;0.55;0.55;;;;;;;20.00;53.27;101734.69;5092665;28;20147;-83
2023/05/05 08:56:18;;;;;;;0.10;0.10;;;;;;;19.93;53.26;101741.28;5079337;28;20081;-81
2023/05/05 08:58:45;;;;;;;0.10;0.10;;;;;;;19.88;53.21;101748.69;5083632;28;20046;-81
2023/05/05 09:01:12;;;;;;;2.10;0.68;;;;;;;19.85;53.61;101754.16;5085721;28;20036;-83
2023/05/05 09:03:39;;;;;;;0.10;0.10;;;;;;;19.81;53.28;101755.22;5083221;28;20052;-84
2023/05/05 09:06:06;;;;;;;0.10;0.10;;;;;;;19.76;53.61;101757.25;5085181;28;20054;-82
2023/05/05 09:08:32;;;;;;;0.05;0.05;;;;;;;19.70;54.02;101753.00;5074143;28;20032;-81
2023/05/05 09:11:01;;;;;;;0.20;0.20;;;;;;;19.62;54.03;101763.25;5083291;28;20097;-81
2023/05/05 09:13:28;;;;;;;0.05;0.05;;;;;;;19.52;54.14;101773.50;5095557;28;20558;-78
2023/05/05 09:15:55;;;;;;;0.10;0.10;;;;;;;19.42;54.53;101764.09;5087141;28;20036;-82
2023/05/05 09:18:21;;;;;;;0.10;0.10;;;;;;;19.33;55.00;101760.84;5082478;28;20066;-79
2023/05/05 09:20:47;;;;;;;0.10;0.10;;;;;;;19.31;55.02;101760.03;5074949;28;20032;-79
2023/05/05 09:23:16;;;;;;;0.10;0.10;;;;;;;19.26;55.54;101766.56;5081604;28;20095;-79
2023/05/05 09:25:45;;;;;;;0.00;0.00;;;;;;;19.20;55.64;101767.69;5075679;28;20390;-79
2023/05/05 09:28:13;;;;;;;0.10;0.10;;;;;;;19.11;56.49;101765.38;5072095;28;20166;-79
2023/05/05 09:30:42;;;;;;;0.00;0.00;;;;;;;19.02;56.13;101756.75;5075317;28;20039;-76
2023/05/05 09:33:08;;;;;;;0.10;0.10;;;;;;;19.03;56.66;101758.50;5081875;28;20586;-78
2023/05/05 09:38:25;;;;;;;0.10;0.10;;;;;;;19.28;56.98;101762.88;5105064;27;20380;-78
2023/05/05 09:40:53;;;;;;;0.20;0.20;;;;;;;19.43;56.96;101765.81;5079922;28;20560;-79
2023/05/05 09:43:21;;;;;;;0.10;0.10;;;;;;;19.55;57.20;101754.53;5077151;28;20024;-77
2023/05/05 09:45:48;;;;;;;0.10;0.10;;;;;;;19.67;58.11;101759.41;5080764;28;20490;-80
2023/05/05 09:48:31;;;;;;;0.10;0.10;;;;;;;19.87;57.08;101761.22;5076774;28;20041;-80
2023/05/05 09:50:58;;;;;;;0.50;0.50;;;;;;;19.89;57.11;101766.56;5071888;28;20413;-79
2023/05/05 09:53:25;;;;;;;0.10;0.10;;;;;;;19.92;57.46;101769.09;5083197;28;20401;-78
2023/05/05 09:55:55;;;;;;;0.00;0.00;;;;;;;19.92;57.34;101766.41;5074210;28;20112;-77
2023/05/05 09:58:24;;;;;;;0.55;0.55;;;;;;;19.89;57.44;101761.19;5077651;28;20092;-76
2023/05/05 10:00:50;;;;;;;0.10;0.10;;;;;;;19.84;57.64;101765.91;5077756;28;20043;-79
2023/05/05 10:03:16;;;;;;;0.10;0.10;;;;;;;19.82;57.97;101778.50;5080223;28;20028;-78
2023/05/05 10:05:58;;;;;;;0.10;0.10;;;;;;;19.82;58.21;101773.13;5072499;28;20630;-80
2023/05/05 10:08:29;;;;;;;0.10;0.10;;;;;;;19.66;58.19;101776.47;5072108;28;20450;-78
2023/05/05 10:11:00;;;;;;;0.32;0.32;;;;;;;19.54;58.36;101766.25;5071273;28;20308;-78
2023/05/05 10:13:27;;;;;;;0.55;0.55;;;;;;;19.44;58.75;101760.41;5072537;28;20103;-79
2023/05/05 10:15:55;;;;;;;0.10;0.10;;;;;;;19.37;58.68;101749.03;5075333;28;20409;-78
2023/05/05 10:18:23;;;;;;;0.15;0.15;;;;;;;19.34;59.03;101750.97;5071370;28;20040;-79
2023/05/05 10:23:38;;;;;;;0.10;0.10;;;;;;;19.35;59.28;101759.00;5092651;27;20405;-81
2023/05/05 10:26:12;;;;;;;0.03;0.03;;;;;;;19.38;59.74;101764.22;5081982;28;20069;-79
2023/05/05 10:28:46;;;;;;;0.00;0.00;;;;;;;19.39;59.59;101759.72;5081970;28;20552;-81
2023/05/05 10:31:23;;;;;;;0.00;0.00;;;;;;;19.38;59.51;101768.72;5086173;28;20028;-80
2023/05/05 10:33:54;;;;;;;0.00;0.00;;;;;;;19.35;59.77;101769.75;5083386;28;20021;-80
2023/05/05 10:36:21;;;;;;;0.10;0.10;;;;;;;19.31;60.00;101773.47;5084015;28;20039;-79
2023/05/05 10:38:53;;;;;;;0.08;0.08;;;;;;;19.30;60.11;101761.00;5085226;28;20032;-80
2023/05/05 10:41:20;;;;;;;0.47;0.47;;;;;;;19.27;60.13;101765.63;5081178;28;20036;-80
2023/05/05 10:43:46;;;;;;;0.10;0.10;;;;;;;19.20;60.02;101765.00;5077416;28;20114;-78
2023/05/05 10:46:13;;;;;;;0.10;0.10;;;;;;;19.16;60.09;101766.06;5078002;28;20540;-79
2023/05/05 10:48:50;;;;;;;0.10;0.10;;;;;;;19.18;59.98;101766.88;5075872;28;20051;-80
2023/05/05 10:54:06;;;;;;;0.00;0.00;;;;;;;19.09;60.51;101776.19;5052238;28;20135;-80
2023/05/05 10:56:33;;;;;;;0.30;0.30;;;;;;;18.94;60.32;101785.75;5033445;28;20513;-78
2023/05/05 10:58:59;;;;;;;1.25;0.52;;;;;;;18.84;60.52;101790.59;5030795;28;20029;-79
2023/05/05 11:04:22;;;;;;;0.00;0.00;;;;;;;18.85;60.76;101780.69;5053763;28;20414;-81
2023/05/05 11:10:03;;;;;;;0.10;0.10;;;;;;;18.79;61.80;101759.47;5043102;28;20404;-79
2023/05/05 11:12:30;;;;;;;0.10;0.10;;;;;;;18.72;61.38;101759.72;5039748;28;20177;-78
2023/05/05 11:15:36;;;;;;;0.10;0.10;;;;;;;18.83;61.39;101763.75;5028891;28;20029;-80
2023/05/05 11:18:03;;;;;;;0.10;0.10;;;;;;;18.76;60.89;101763.16;5018009;28;20018;-80
2023/05/05 11:23:21;;;;;;;0.10;0.10;;;;;;;18.86;61.64;101769.88;5123111;27;21053;-79
2023/05/05 11:25:47;;;;;;;0.00;0.00;;;;;;;18.84;61.84;101768.22;5105021;28;20028;-80
2023/05/05 11:28:15;;;;;;;0.00;0.00;;;;;;;18.86;61.96;101769.03;5103851;28;20042;-79
2023/05/05 11:33:37;;;;;;;0.10;0.10;;;;;;;18.83;61.88;101780.78;5051064;28;20428;-80
2023/05/05 11:38:55;;;;;;;0.00;0.00;;;;;;;18.72;62.06;101783.88;5042798;28;20389;-79
2023/05/05 11:52:08;;;;;;;0.00;0.00;;;;;;;18.30;62.75;101764.94;5099116;27;20399;-80
2023/05/05 11:54:37;;;;;;;0.00;0.00;;;;;;;18.29;62.70;101764.06;5095344;28;20035;-80
2023/05/05 11:57:06;;;;;;;0.00;0.00;;;;;;;18.27;62.95;101766.81;5097549;28;20111;-79
2023/05/05 11:59:36;;;;;;;0.00;0.00;;;;;;;18.25;62.47;101770.47;5088033;28;20040;-80
2023/05/05 12:02:02;;;;;;;0.00;0.00;;;;;;;18.18;62.79;101747.50;5077751;28;20031;-80
2023/05/05 12:04:30;;;;;;;0.47;0.47;;;;;;;18.09;63.06;101744.25;5089353;28;20051;-81
2023/05/05 12:06:58;;;;;;;0.10;0.10;;;;;;;18.03;62.77;101744.47;5097998;28;20054;-80
2023/05/05 12:09:24;;;;;;;0.00;0.00;;;;;;;17.99;63.12;101736.59;5090852;28;20047;-80
2023/05/05 12:11:53;;;;;;;0.00;0.00;;;;;;;17.92;63.07;101730.56;5084746;28;20020;-80
2023/05/05 12:14:20;;;;;;;0.77;0.77;;;;;;;17.83;62.88;101731.75;5078638;28;20068;-81
2023/05/05 12:19:32;;;;;;;0.10;0.10;;;;;;;17.66;63.42;101732.34;5072375;27;1972567;-79
2023/05/05 12:22:00;;;;;;;0.10;0.10;;;;;;;17.61;63.61;101734.34;5130638;27;20058;-80
2023/05/05 12:24:26;;;;;;;0.10;0.10;;;;;;;17.58;63.40;101737.09;5105737;28;20032;-79